Time;durP1;ratioP1;P1;durP2;ratioP2;P2;SDS_P1;SDS_P2;PMS_P1;PMS_P2;Temp;Humidity;BMP_temperature;BMP_pressure;BME280_temperature;BME280_humidity;BME280_pressure;Samples;Min_cycle;Max_cycle;Signal;HPM_P1;HPM_P2
2023/03/07 00:01:51;;;;;;;2.50;1.00;;;5.00;99.90;;;;;;25640814;23;20020;-42
2023/03/07 00:11:53;;;;;;;17.35;2.65;;;5.00;99.90;;;;;;25642421;23;20012;-40
2023/03/07 00:21:54;;;;;;;15.85;3.10;;;4.90;99.90;;;;;;25643225;23;20027;-40
2023/03/07 00:31:55;;;;;;;6.05;2.08;;;4.90;99.90;;;;;;25643219;23;20018;-40
2023/03/07 00:41:56;;;;;;;8.88;3.50;;;4.90;99.90;;;;;;25640422;23;20024;-40
2023/03/07 00:51:57;;;;;;;2.65;1.48;;;4.90;99.90;;;;;;25640812;23;20052;-40
2023/03/07 01:01:58;;;;;;;2.33;1.23;;;5.00;99.90;;;;;;25639101;23;20016;-40
2023/03/07 01:11:59;;;;;;;3.25;0.63;;;5.10;99.90;;;;;;25637141;23;20016;-40
2023/03/07 01:22:01;;;;;;;1.77;0.98;;;5.00;99.90;;;;;;25635812;23;20450;-40
2023/03/07 01:32:02;;;;;;;12.32;2.28;;;4.80;99.90;;;;;;25639913;23;20012;-40
2023/03/07 01:42:04;;;;;;;1.80;0.98;;;4.70;99.90;;;;;;25637440;23;20498;-40
2023/03/07 01:52:33;;;;;;;2.80;1.15;;;4.70;99.90;;;;;;25639891;23;20019;-40
2023/03/07 02:02:36;;;;;;;7.50;1.35;;;4.60;99.90;;;;;;25629607;23;20016;-40
2023/03/07 02:12:39;;;;;;;4.80;1.40;;;4.50;99.90;;;;;;25637424;23;20027;-40
2023/03/07 02:22:41;;;;;;;3.63;1.42;;;4.50;99.90;;;;;;25638812;23;20016;-40
2023/03/07 02:32:42;;;;;;;2.60;0.65;;;4.50;99.90;;;;;;25639690;23;20035;-40
2023/03/07 02:42:44;;;;;;;4.47;1.40;;;4.60;99.90;;;;;;25631916;23;20024;-40
2023/03/07 02:52:45;;;;;;;3.78;1.70;;;4.60;99.90;;;;;;25636991;23;20021;-40
2023/03/07 03:02:46;;;;;;;2.00;0.85;;;4.60;99.90;;;;;;25636371;23;20330;-40
2023/03/07 03:12:47;;;;;;;1.77;1.05;;;4.50;99.90;;;;;;25639490;23;20016;-40
2023/03/07 03:22:51;;;;;;;1.38;0.60;;;4.50;99.90;;;;;;25635721;23;20394;-40
2023/03/07 03:32:52;;;;;;;1.98;0.93;;;4.60;99.90;;;;;;25636072;23;20023;-41
2023/03/07 03:42:53;;;;;;;4.72;1.02;;;4.50;99.90;;;;;;25651549;23;20024;-40
2023/03/07 03:52:54;;;;;;;3.03;1.48;;;4.60;99.90;;;;;;25634956;23;20013;-40
2023/03/07 04:02:55;;;;;;;2.00;0.90;;;4.50;99.90;;;;;;25635380;23;20413;-41
2023/03/07 04:12:56;;;;;;;4.00;1.23;;;4.60;99.90;;;;;;25633616;23;20036;-40
2023/03/07 04:22:57;;;;;;;2.58;1.02;;;4.50;99.90;;;;;;25634723;23;20020;-40
2023/03/07 04:32:58;;;;;;;1.55;0.40;;;4.60;99.90;;;;;;25649305;23;20027;-40
2023/03/07 04:43:00;;;;;;;2.13;0.60;;;4.50;99.90;;;;;;25638780;23;20046;-40
2023/03/07 04:53:01;;;;;;;0.68;0.20;;;4.30;97.50;;;;;;25642948;23;20023;-40
2023/03/07 05:03:02;;;;;;;1.13;0.32;;;4.20;89.20;;;;;;25641760;23;20022;-40
2023/03/07 05:13:03;;;;;;;0.88;0.20;;;4.10;86.80;;;;;;25645392;23;20023;-40
2023/03/07 05:23:04;;;;;;;1.13;0.47;;;4.10;93.30;;;;;;25658113;23;20016;-42
2023/03/07 05:33:05;;;;;;;0.88;0.10;;;4.00;99.80;;;;;;25656906;23;20016;-42
2023/03/07 05:43:06;;;;;;;1.92;0.20;;;3.70;45.00;;;;;;25639273;23;20571;-42
2023/03/07 05:53:08;;;;;;;0.82;0.45;;;3.50;43.30;;;;;;25635103;23;20018;-42
2023/03/07 06:03:09;;;;;;;2.05;0.50;;;3.30;50.30;;;;;;25641088;23;20016;-42
2023/03/07 06:13:16;;;;;;;1.95;0.63;;;2.80;61.50;;;;;;25643123;23;20016;-42
2023/03/07 06:23:17;;;;;;;2.42;0.50;;;2.60;90.80;;;;;;25638739;23;20196;-43
2023/03/07 06:33:18;;;;;;;1.73;0.38;;;2.30;99.90;;;;;;25638972;23;20017;-43
2023/03/07 06:43:19;;;;;;;6.57;1.33;;;2.20;99.90;;;;;;25636164;23;20358;-42
2023/03/07 06:53:20;;;;;;;0.77;0.32;;;2.20;99.90;;;;;;25636430;23;20015;-42
2023/03/07 07:03:21;;;;;;;0.95;0.43;;;2.30;99.90;;;;;;25632545;23;20016;-42
2023/03/07 07:13:22;;;;;;;1.02;0.55;;;2.20;99.90;;;;;;25637173;23;20289;-42
2023/03/07 07:23:25;;;;;;;2.28;0.77;;;2.20;99.90;;;;;;25637610;23;20303;-43
2023/03/07 07:33:26;;;;;;;0.60;0.30;;;2.10;99.90;;;;;;25624415;23;20027;-42
2023/03/07 07:43:27;;;;;;;4.10;0.50;;;2.10;99.90;;;;;;25650877;23;20520;-42
2023/03/07 07:53:29;;;;;;;1.70;0.60;;;2.20;99.90;;;;;;25639180;23;20342;-40
2023/03/07 08:03:30;;;;;;;2.28;0.50;;;2.20;99.90;;;;;;25633771;23;20023;-40
2023/03/07 08:13:31;;;;;;;1.95;0.68;;;2.10;99.90;;;;;;25644394;23;20040;-40
2023/03/07 08:23:32;;;;;;;1.00;0.52;;;2.00;99.90;;;;;;25654478;23;20475;-40
2023/03/07 08:33:33;;;;;;;1.42;0.50;;;2.00;99.90;;;;;;25649255;23;20017;-40
2023/03/07 08:43:36;;;;;;;2.20;0.82;;;2.20;99.90;;;;;;25642504;23;20023;-40
2023/03/07 08:53:37;;;;;;;1.77;0.52;;;2.20;99.90;;;;;;25649562;23;20008;-40
2023/03/07 09:03:38;;;;;;;1.73;0.70;;;2.40;99.90;;;;;;25653835;23;20023;-40
2023/03/07 09:13:40;;;;;;;1.17;0.50;;;2.60;99.90;;;;;;25658001;23;20018;-40
2023/03/07 09:23:42;;;;;;;2.38;0.60;;;3.00;99.90;;;;;;25655103;23;20332;-40
2023/03/07 09:33:43;;;;;;;3.63;1.17;;;3.30;99.90;;;;;;25602497;23;1133367;-40
2023/03/07 09:44:03;;;;;;;4.13;0.43;;;3.50;99.90;;;;;;25670341;23;20023;-40
2023/03/07 09:54:31;;;;;;;2.67;0.52;;;3.70;99.90;;;;;;25658435;23;20156;-40
2023/03/07 10:04:56;;;;;;;2.30;0.50;;;3.70;99.90;;;;;;25643016;23;20015;-40
2023/03/07 10:15:06;;;;;;;0.90;0.30;;;3.90;99.90;;;;;;25647282;23;20385;-41
2023/03/07 10:25:07;;;;;;;1.95;0.30;;;3.90;99.90;;;;;;25643386;23;20020;-40
2023/03/07 10:35:19;;;;;;;0.60;0.20;;;4.00;99.90;;;;;;25641993;23;20016;-40
2023/03/07 10:45:21;;;;;;;0.93;0.35;;;4.00;99.90;;;;;;25644652;23;20020;-40
2023/03/07 10:56:10;;;;;;;3.42;0.60;;;3.80;98.50;;;;;;25642053;23;20358;-40
2023/03/07 11:06:50;;;;;;;1.23;0.30;;;4.00;99.90;;;;;;25561059;23;20517;-40
2023/03/07 11:16:52;;;;;;;1.67;1.05;;;3.90;97.50;;;;;;25618539;23;21414;-40
2023/03/07 11:26:56;;;;;;;2.22;0.95;;;3.80;99.90;;;;;;25642394;23;20013;-40
2023/03/07 11:37:22;;;;;;;0.45;0.13;;;3.90;99.90;;;;;;25667224;23;20545;-40
2023/03/07 11:47:59;;;;;;;0.08;0.00;;;4.10;99.90;;;;;;25670409;23;20498;-40
2023/03/07 11:58:25;;;;;;;1.10;0.43;;;3.90;99.90;;;;;;25658367;23;20020;-40
2023/03/07 12:08:45;;;;;;;1.15;0.43;;;3.20;92.80;;;;;;25668957;23;21488;-42
2023/03/07 12:18:55;;;;;;;0.88;0.17;;;3.20;99.90;;;;;;25657980;23;20005;-43
2023/03/07 12:29:18;;;;;;;0.57;0.30;;;3.10;99.90;;;;;;25662007;23;20538;-42
2023/03/07 12:39:31;;;;;;;0.32;0.15;;;3.10;99.90;;;;;;25664510;23;20640;-42
2023/03/07 12:49:46;;;;;;;0.90;0.20;;;3.20;99.90;;;;;;25667489;23;20084;-43
2023/03/07 12:59:49;;;;;;;0.85;0.35;;;3.00;99.90;;;;;;25659998;23;20560;-41
2023/03/07 13:09:53;;;;;;;1.23;0.55;;;2.90;99.90;;;;;;25660219;23;20009;-41
2023/03/07 13:19:59;;;;;;;0.68;0.38;;;3.10;99.90;;;;;;25661504;23;20026;-40
2023/03/07 13:30:06;;;;;;;2.63;0.20;;;3.00;99.90;;;;;;25651344;23;20222;-40
2023/03/07 13:40:29;;;;;;;0.38;0.10;;;3.10;99.90;;;;;;25661050;23;20071;-40
2023/03/07 13:50:33;;;;;;;20.83;1.70;;;3.10;99.90;;;;;;25650828;23;20040;-40
2023/03/07 14:00:49;;;;;;;0.70;0.22;;;3.00;99.90;;;;;;25645761;23;20341;-40
2023/03/07 14:10:50;;;;;;;4.40;0.22;;;2.90;99.50;;;;;;25613192;23;20016;-40
2023/03/07 14:21:25;;;;;;;2.03;0.82;;;2.70;99.90;;;;;;25651907;23;20022;-41
2023/03/07 14:31:29;;;;;;;1.73;0.38;;;2.60;99.90;;;;;;25639164;23;20672;-41
2023/03/07 14:42:04;;;;;;;3.95;1.38;;;2.70;99.90;;;;;;25653744;23;20023;-40
2023/03/07 14:52:12;;;;;;;0.15;0.05;;;2.80;99.90;;;;;;25651539;23;20174;-40
2023/03/07 15:02:17;;;;;;;1.35;0.35;;;3.00;99.90;;;;;;25660370;23;20629;-41
2023/03/07 15:12:26;;;;;;;1.05;0.40;;;3.20;99.90;;;;;;25660244;23;20022;-41
2023/03/07 15:22:38;;;;;;;5.47;0.88;;;3.20;99.90;;;;;;25660740;23;20021;-43
2023/03/07 15:32:39;;;;;;;0.45;0.17;;;3.10;99.90;;;;;;25654150;23;20022;-40
2023/03/07 15:43:12;;;;;;;0.65;0.28;;;3.30;99.90;;;;;;25508136;22;20025;-42
2023/03/07 15:53:24;;;;;;;3.65;1.20;;;3.30;99.90;;;;;;25535390;22;20032;-42
2023/03/07 16:03:30;;;;;;;0.77;0.30;;;3.30;99.90;;;;;;25526818;23;20023;-40
2023/03/07 16:13:39;;;;;;;9.95;2.00;;;3.40;99.90;;;;;;25531034;22;20013;-40
2023/03/07 16:23:42;;;;;;;5.93;0.82;;;3.40;99.90;;;;;;25518123;23;20031;-40
2023/03/07 16:33:45;;;;;;;5.93;2.17;;;3.50;99.90;;;;;;25529281;22;20219;-41
2023/03/07 16:43:52;;;;;;;1.05;0.45;;;3.50;91.00;;;;;;25634478;23;20017;-42
2023/03/07 16:53:55;;;;;;;1.20;0.60;;;3.40;66.50;;;;;;25665284;22;20647;-43
2023/03/07 17:03:56;;;;;;;2.75;0.57;;;3.30;70.10;;;;;;25644043;22;20384;-42
2023/03/07 17:14:01;;;;;;;0.98;0.30;;;3.30;76.20;;;;;;25665165;22;20017;-43
2023/03/07 17:24:02;;;;;;;2.47;0.85;;;3.30;76.40;;;;;;25635960;23;20030;-43
2023/03/07 17:34:03;;;;;;;3.67;1.92;;;3.20;80.80;;;;;;25651219;23;20035;-43
2023/03/07 17:44:04;;;;;;;0.65;0.30;;;3.10;85.60;;;;;;25668191;23;20521;-40
2023/03/07 17:54:07;;;;;;;0.80;0.13;;;3.20;91.30;;;;;;25669193;22;20377;-40
2023/03/07 18:04:08;;;;;;;1.30;0.30;;;2.60;59.00;;;;;;25647098;23;20016;-40
2023/03/07 18:14:11;;;;;;;0.75;0.50;;;2.20;70.30;;;;;;25660975;23;20027;-40
2023/03/07 18:24:28;;;;;;;0.50;0.22;;;2.10;95.00;;;;;;25648630;23;20482;-40
2023/03/07 18:34:30;;;;;;;0.60;0.32;;;2.00;99.90;;;;;;25668241;23;20071;-40
2023/03/07 18:44:31;;;;;;;0.57;0.10;;;1.90;99.90;;;;;;25775382;23;20016;-42
2023/03/07 18:54:33;;;;;;;1.50;0.80;;;1.80;99.90;;;;;;25776047;23;20016;-40
2023/03/07 19:04:34;;;;;;;19.33;1.73;;;1.70;99.90;;;;;;25766554;23;20349;-40
2023/03/07 19:14:35;;;;;;;1.92;0.93;;;1.50;99.90;;;;;;25762413;23;20011;-40
2023/03/07 19:24:36;;;;;;;2.95;1.65;;;1.50;99.90;;;;;;25765934;23;20020;-40
2023/03/07 19:34:37;;;;;;;2.55;1.20;;;1.40;99.90;;;;;;25773830;23;20050;-40
2023/03/07 19:44:38;;;;;;;2.83;0.60;;;1.30;99.90;;;;;;25780951;23;20020;-40
2023/03/07 19:54:39;;;;;;;7.93;3.92;;;1.30;99.90;;;;;;25775414;23;20018;-41
2023/03/07 20:04:40;;;;;;;1.55;0.60;;;1.20;99.90;;;;;;25778430;23;20019;-40
2023/03/07 20:14:43;;;;;;;2.80;1.25;;;1.10;99.90;;;;;;25785931;23;20338;-40
2023/03/07 20:24:44;;;;;;;3.17;1.30;;;1.10;99.90;;;;;;25789589;23;20514;-40
2023/03/07 20:34:49;;;;;;;6.45;3.88;;;1.00;99.90;;;;;;25784986;23;20026;-40
2023/03/07 20:44:51;;;;;;;3.40;2.03;;;1.10;99.90;;;;;;25784519;23;20570;-40
2023/03/07 20:54:52;;;;;;;16.63;2.47;;;1.10;99.90;;;;;;25786003;23;20046;-40
2023/03/07 21:04:53;;;;;;;2.00;1.00;;;1.10;99.90;;;;;;25774938;23;20018;-41
2023/03/07 21:14:54;;;;;;;4.57;1.05;;;1.00;99.90;;;;;;25788802;22;20022;-41
2023/03/07 21:24:55;;;;;;;1.00;0.68;;;1.10;99.90;;;;;;25776718;23;20461;-41
2023/03/07 21:34:56;;;;;;;1.88;0.85;;;1.00;99.90;;;;;;25769619;22;20323;-41
2023/03/07 21:44:57;;;;;;;0.88;0.32;;;1.00;99.90;;;;;;25771655;22;20016;-41
2023/03/07 21:54:58;;;;;;;1.20;0.50;;;0.80;99.90;;;;;;25765324;23;20020;-40
2023/03/07 22:04:59;;;;;;;2.55;1.17;;;0.80;99.90;;;;;;25770592;22;20034;-40
2023/03/07 22:15:00;;;;;;;1.27;0.73;;;0.80;99.90;;;;;;25784741;22;20067;-41
2023/03/07 22:25:02;;;;;;;1.65;0.68;;;0.80;99.90;;;;;;25783960;23;20024;-41
2023/03/07 22:35:03;;;;;;;1.45;0.73;;;0.80;99.90;;;;;;25776673;23;20024;-41
2023/03/07 22:45:05;;;;;;;2.38;1.13;;;0.70;99.90;;;;;;25777518;23;20016;-41
2023/03/07 22:55:06;;;;;;;0.63;0.35;;;0.80;99.90;;;;;;25785174;23;20018;-41
2023/03/07 23:05:07;;;;;;;1.67;0.55;;;0.70;99.90;;;;;;25781737;23;20059;-41
2023/03/07 23:15:08;;;;;;;1.73;0.30;;;0.60;99.90;;;;;;25776022;23;20251;-41
2023/03/07 23:25:10;;;;;;;0.80;0.65;;;0.60;99.90;;;;;;25774690;23;20042;-41
2023/03/07 23:35:11;;;;;;;0.93;0.65;;;0.60;99.90;;;;;;25764755;23;20359;-41
2023/03/07 23:45:12;;;;;;;0.52;0.25;;;0.70;99.90;;;;;;25772815;23;20016;-41
2023/03/07 23:55:14;;;;;;;4.07;0.85;;;0.70;99.90;;;;;;25769136;23;20012;-41
